createdAt,value
2018-02-11T00:00:26.886Z,3.60
2018-02-11T00:02:54.372Z,3.50
2018-02-11T00:05:21.873Z,3.60
2018-02-11T00:07:50.144Z,3.60
2018-02-11T00:10:17.723Z,3.60
2018-02-11T00:12:45.277Z,3.60
2018-02-11T00:15:13.630Z,3.60
2018-02-11T00:17:41.102Z,3.60
2018-02-11T00:20:09.472Z,3.60
2018-02-11T00:22:36.958Z,3.60
2018-02-11T00:25:04.490Z,3.60
2018-02-11T00:27:31.978Z,3.60
2018-02-11T00:30:00.435Z,3.50
2018-02-11T00:32:28.711Z,3.40
2018-02-11T00:34:56.941Z,3.30
2018-02-11T00:37:30.000Z,3.30
2018-02-11T00:39:57.495Z,3.40
2018-02-11T00:42:24.985Z,3.50
2018-02-11T00:44:52.498Z,3.40
2018-02-11T00:47:20.031Z,3.40
2018-02-11T00:49:47.527Z,3.40
2018-02-11T00:52:15.000Z,3.30
2018-02-11T00:54:42.497Z,3.40
2018-02-11T00:57:09.989Z,3.30
2018-02-11T00:59:37.486Z,3.40
2018-02-11T01:02:05.004Z,3.30
2018-02-11T01:04:32.490Z,3.30
2018-02-11T01:06:59.976Z,3.40
2018-02-11T01:09:28.218Z,3.30
2018-02-11T01:11:55.703Z,3.30
2018-02-11T01:14:23.209Z,3.30
2018-02-11T01:16:50.685Z,3.20
2018-02-11T01:19:18.171Z,3.30
2018-02-11T01:21:45.633Z,3.20
2018-02-11T01:24:13.890Z,3.20
2018-02-11T01:26:41.417Z,3.20
2018-02-11T01:29:08.940Z,3.20
2018-02-11T01:31:36.421Z,3.10
2018-02-11T01:34:03.979Z,3.00
2018-02-11T01:36:31.454Z,3.00
2018-02-11T01:38:58.937Z,3.00
2018-02-11T01:41:26.418Z,2.90
2018-02-11T01:43:53.899Z,2.90
2018-02-11T01:46:21.412Z,2.80
2018-02-11T01:48:48.888Z,2.70
2018-02-11T01:51:16.361Z,2.60
2018-02-11T01:53:43.863Z,2.60
2018-02-11T01:56:11.356Z,2.50
2018-02-11T01:58:38.834Z,2.50
2018-02-11T02:01:06.319Z,2.40
2018-02-11T02:03:33.801Z,2.30
2018-02-11T02:06:01.284Z,2.30
2018-02-11T02:08:29.563Z,2.20
2018-02-11T02:10:57.849Z,2.20
2018-02-11T02:13:26.088Z,2.20
2018-02-11T02:15:53.588Z,2.20
2018-02-11T02:18:21.082Z,2.10
2018-02-11T02:20:48.551Z,2.10
2018-02-11T02:23:16.337Z,2.10
2018-02-11T02:25:44.632Z,2.10
2018-02-11T02:28:12.061Z,2.10
2018-02-11T02:30:39.582Z,2.20
2018-02-11T02:33:07.084Z,2.20
2018-02-11T02:35:34.796Z,2.20
2018-02-11T02:38:02.285Z,2.10
2018-02-11T02:40:29.777Z,2.10
2018-02-11T02:42:58.021Z,2.20
2018-02-11T02:45:25.523Z,2.20
2018-02-11T02:47:53.101Z,2.30
2018-02-11T02:50:20.566Z,2.30
2018-02-11T02:52:48.063Z,2.30
2018-02-11T02:55:15.556Z,2.40
2018-02-11T02:57:43.041Z,2.40
2018-02-11T03:00:10.505Z,2.40
2018-02-11T03:02:37.977Z,2.40
2018-02-11T03:05:05.444Z,2.30
2018-02-11T03:07:32.932Z,2.30
2018-02-11T03:10:00.407Z,2.30
2018-02-11T03:12:27.926Z,2.30
2018-02-11T03:14:56.385Z,2.40
2018-02-11T03:17:24.034Z,2.40
2018-02-11T03:19:51.557Z,2.50
2018-02-11T03:22:19.051Z,2.50
2018-02-11T03:24:46.551Z,2.50
2018-02-11T03:27:14.801Z,2.50
2018-02-11T03:29:42.272Z,2.50
2018-02-11T03:32:09.793Z,2.60
2018-02-11T03:34:37.367Z,2.60
2018-02-11T03:37:04.857Z,2.50
2018-02-11T03:39:32.438Z,2.50
2018-02-11T03:41:59.949Z,2.50
2018-02-11T03:44:27.409Z,2.50
2018-02-11T03:46:55.680Z,2.50
2018-02-11T03:49:23.158Z,2.40
2018-02-11T03:51:50.619Z,2.40
2018-02-11T03:54:18.110Z,2.50
2018-02-11T03:56:45.574Z,2.50
2018-02-11T03:59:13.063Z,2.40
2018-02-11T04:01:40.533Z,2.40
2018-02-11T04:04:08.061Z,2.40
2018-02-11T04:06:35.513Z,2.40
2018-02-11T04:09:03.081Z,2.40
2018-02-11T04:11:30.560Z,2.40
2018-02-11T04:13:58.051Z,2.30
2018-02-11T04:16:26.289Z,2.40
2018-02-11T04:18:53.765Z,2.40
2018-02-11T04:21:21.228Z,2.40
2018-02-11T04:23:48.714Z,2.40
2018-02-11T04:26:16.186Z,2.40
2018-02-11T04:28:43.673Z,2.40
2018-02-11T04:31:11.149Z,2.40
2018-02-11T04:33:38.673Z,2.40
2018-02-11T04:36:06.152Z,2.50
2018-02-11T04:38:33.641Z,2.40
2018-02-11T04:41:01.140Z,2.50
2018-02-11T04:43:28.619Z,2.50
2018-02-11T04:45:56.099Z,2.60
2018-02-11T04:48:23.581Z,2.60
2018-02-11T04:50:51.084Z,2.60
2018-02-11T04:53:18.578Z,2.60
2018-02-11T04:55:46.069Z,2.60
2018-02-11T04:58:13.599Z,2.60
2018-02-11T05:00:41.966Z,2.60
2018-02-11T05:03:09.430Z,2.60
2018-02-11T05:05:36.899Z,2.60
2018-02-11T05:08:04.396Z,2.60
2018-02-11T05:10:31.885Z,2.60
2018-02-11T05:12:59.361Z,2.60
2018-02-11T05:15:26.943Z,2.60
2018-02-11T05:17:54.472Z,2.60
2018-02-11T05:20:21.933Z,2.70
2018-02-11T05:22:49.410Z,2.70
2018-02-11T05:25:16.870Z,2.60
2018-02-11T05:27:44.386Z,2.50
2018-02-11T05:30:11.852Z,2.60
2018-02-11T05:32:39.342Z,2.60
2018-02-11T05:35:06.850Z,2.50
2018-02-11T05:37:34.318Z,2.60
2018-02-11T05:40:01.869Z,2.60
2018-02-11T05:42:29.328Z,2.60
2018-02-11T05:44:56.915Z,2.50
2018-02-11T05:47:24.407Z,2.60
2018-02-11T05:49:51.946Z,2.60
2018-02-11T05:52:19.426Z,2.60
2018-02-11T05:54:46.909Z,2.50
2018-02-11T05:57:14.421Z,2.40
2018-02-11T05:59:41.899Z,2.30
2018-02-11T06:02:09.429Z,2.20
2018-02-11T06:04:36.914Z,2.20
2018-02-11T06:07:04.404Z,2.20
2018-02-11T06:09:31.942Z,2.20
2018-02-11T06:11:59.433Z,2.20
2018-02-11T06:14:26.912Z,2.20
2018-02-11T06:16:55.170Z,2.20
2018-02-11T06:19:22.629Z,2.20
2018-02-11T06:21:50.097Z,2.30
2018-02-11T06:24:17.545Z,2.20
2018-02-11T06:26:45.813Z,2.20
2018-02-11T06:29:13.277Z,2.20
2018-02-11T06:31:42.153Z,2.10
2018-02-11T06:34:09.610Z,2.10
2018-02-11T06:36:37.860Z,2.20
2018-02-11T06:39:05.331Z,2.20
2018-02-11T06:41:32.806Z,2.20
2018-02-11T06:44:00.309Z,2.20
2018-02-11T06:46:27.817Z,2.20
2018-02-11T06:48:55.289Z,2.20
2018-02-11T06:51:23.517Z,2.10
2018-02-11T06:53:50.980Z,2.10
2018-02-11T06:56:18.462Z,2.10
2018-02-11T06:58:45.950Z,2.00
2018-02-11T07:01:15.404Z,2.10
2018-02-11T07:03:42.889Z,2.10
2018-02-11T07:06:10.347Z,2.10
2018-02-11T07:08:37.814Z,2.10
2018-02-11T07:11:05.307Z,2.10
2018-02-11T07:13:32.792Z,2.10
2018-02-11T07:16:00.272Z,2.10
2018-02-11T07:18:27.754Z,2.10
2018-02-11T07:20:56.156Z,2.10
2018-02-11T07:23:24.566Z,2.10
2018-02-11T07:25:52.037Z,2.00
2018-02-11T07:28:19.513Z,2.00
2018-02-11T07:30:47.777Z,2.00
2018-02-11T07:33:15.293Z,2.00
2018-02-11T07:35:42.777Z,2.00
2018-02-11T07:38:12.190Z,1.90
2018-02-11T07:40:39.658Z,1.90
2018-02-11T07:43:07.121Z,1.90
2018-02-11T07:45:34.585Z,1.90
2018-02-11T07:48:02.837Z,2.00
2018-02-11T07:50:30.306Z,2.00
2018-02-11T07:52:57.768Z,2.10
2018-02-11T07:55:25.998Z,2.10
2018-02-11T07:57:53.472Z,2.10
2018-02-11T08:00:20.978Z,2.10
2018-02-11T08:02:48.445Z,2.20
2018-02-11T08:05:15.902Z,2.10
2018-02-11T08:07:43.378Z,2.00
2018-02-11T08:10:10.861Z,1.90
2018-02-11T08:12:38.324Z,1.90
2018-02-11T08:15:05.781Z,1.90
2018-02-11T08:17:33.252Z,1.80
2018-02-11T08:20:01.534Z,1.80
2018-02-11T08:22:28.996Z,1.80
2018-02-11T08:24:56.598Z,1.70
2018-02-11T08:27:24.099Z,1.70
2018-02-11T08:29:51.599Z,1.70
2018-02-11T08:32:19.062Z,1.80
2018-02-11T08:34:46.549Z,1.80
2018-02-11T08:37:14.030Z,1.80
2018-02-11T08:39:41.502Z,1.80
2018-02-11T08:42:09.881Z,1.90
2018-02-11T08:44:37.348Z,1.90
2018-02-11T08:47:04.855Z,2.00
2018-02-11T08:49:32.331Z,2.10
2018-02-11T08:51:59.793Z,2.00
2018-02-11T08:54:27.277Z,2.10
2018-02-11T08:56:54.738Z,2.10
2018-02-11T08:59:22.265Z,2.10
2018-02-11T09:01:49.725Z,2.20
2018-02-11T09:04:17.175Z,2.10
2018-02-11T09:06:44.625Z,2.10
2018-02-11T09:09:12.100Z,2.20
2018-02-11T09:11:39.582Z,2.20
2018-02-11T09:14:07.034Z,2.20
2018-02-11T09:16:34.528Z,2.20
2018-02-11T09:19:02.008Z,2.20
2018-02-11T09:21:29.482Z,2.20
2018-02-11T09:23:56.969Z,2.20
2018-02-11T09:26:24.470Z,2.30
2018-02-11T09:28:51.969Z,2.30
2018-02-11T09:31:20.265Z,2.30
2018-02-11T09:33:47.738Z,2.30
2018-02-11T09:36:15.275Z,2.30
2018-02-11T09:38:42.774Z,2.30
2018-02-11T09:41:10.233Z,2.30
2018-02-11T09:43:37.704Z,2.40
2018-02-11T09:46:05.194Z,2.40
2018-02-11T09:48:32.650Z,2.30
2018-02-11T09:51:00.415Z,2.40
2018-02-11T09:53:28.209Z,2.50
2018-02-11T09:55:55.682Z,2.50
2018-02-11T09:58:23.601Z,2.50
2018-02-11T10:00:51.098Z,2.40
2018-02-11T10:03:18.618Z,2.30
2018-02-11T10:05:46.230Z,2.30
2018-02-11T10:08:13.851Z,2.40
2018-02-11T10:10:42.061Z,2.50
2018-02-11T10:13:09.532Z,2.50
2018-02-11T10:15:37.005Z,2.60
2018-02-11T10:18:04.528Z,2.50
2018-02-11T10:20:31.991Z,2.60
2018-02-11T10:22:59.469Z,2.50
2018-02-11T10:25:27.004Z,2.60
2018-02-11T10:27:54.493Z,2.60
2018-02-11T10:30:21.970Z,2.60
2018-02-11T10:32:50.219Z,2.70
2018-02-11T10:35:17.693Z,2.70
2018-02-11T10:37:45.977Z,2.80
2018-02-11T10:40:14.418Z,2.80
2018-02-11T10:42:41.926Z,2.80
2018-02-11T10:45:09.414Z,2.90
2018-02-11T10:47:36.892Z,3.00
2018-02-11T10:50:04.380Z,3.10
2018-02-11T10:52:31.884Z,3.10
2018-02-11T10:54:59.369Z,3.10
2018-02-11T10:57:26.921Z,3.10
2018-02-11T10:59:54.376Z,3.10
2018-02-11T11:02:21.868Z,3.10
2018-02-11T11:04:50.125Z,3.20
2018-02-11T11:07:17.595Z,3.20
2018-02-11T11:09:45.068Z,3.30
2018-02-11T11:12:12.517Z,3.30
2018-02-11T11:14:40.753Z,3.40
2018-02-11T11:17:08.205Z,3.40
2018-02-11T11:19:35.677Z,3.40
2018-02-11T11:22:03.134Z,3.40
2018-02-11T11:24:30.610Z,3.50
2018-02-11T11:26:58.146Z,3.50
2018-02-11T11:29:26.449Z,3.50
2018-02-11T11:31:54.710Z,3.50
2018-02-11T11:34:22.989Z,3.60
2018-02-11T11:36:50.477Z,3.60
2018-02-11T11:39:17.982Z,3.60
2018-02-11T11:41:45.500Z,3.70
2018-02-11T11:44:13.010Z,3.70
2018-02-11T11:46:40.487Z,3.70
2018-02-11T11:49:07.970Z,3.80
2018-02-11T11:51:35.491Z,3.80
2018-02-11T11:54:02.949Z,3.80
2018-02-11T11:56:30.413Z,3.90
2018-02-11T11:58:57.879Z,4.10
2018-02-11T12:01:25.353Z,4.10
2018-02-11T12:03:52.867Z,4.20
2018-02-11T12:06:20.333Z,4.30
2018-02-11T12:08:47.804Z,4.30
2018-02-11T12:11:15.302Z,4.30
2018-02-11T12:13:43.282Z,4.30
2018-02-11T12:16:12.231Z,4.40
2018-02-11T12:18:40.979Z,4.40
2018-02-11T12:21:08.633Z,4.40
2018-02-11T12:23:37.240Z,4.40
2018-02-11T12:26:04.794Z,4.40
2018-02-11T12:28:33.279Z,4.60
2018-02-11T12:31:00.819Z,4.70
2018-02-11T12:33:28.356Z,4.90
2018-02-11T12:35:56.249Z,5.00
2018-02-11T12:38:28.426Z,5.00
2018-02-11T12:40:57.735Z,5.00
2018-02-11T12:47:20.310Z,5.00
2018-02-11T12:49:49.899Z,5.00
2018-02-11T12:52:19.269Z,5.00
2018-02-11T12:57:35.850Z,4.90
2018-02-11T13:00:03.531Z,4.90
2018-02-11T13:02:32.281Z,5.00
2018-02-11T13:05:00.078Z,5.00
2018-02-11T13:07:27.645Z,5.10
2018-02-11T13:09:55.127Z,5.10
2018-02-11T13:12:22.977Z,5.20
2018-02-11T13:14:52.169Z,5.30
2018-02-11T13:17:20.890Z,5.40
2018-02-11T13:19:53.277Z,5.40
2018-02-11T13:22:23.516Z,5.50
2018-02-11T13:24:50.973Z,5.60
2018-02-11T13:27:44.325Z,5.50
2018-02-11T13:30:28.709Z,5.50
2018-02-11T13:33:04.258Z,5.60
2018-02-11T13:35:38.869Z,5.60
2018-02-11T13:38:12.772Z,5.70
2018-02-11T13:40:42.926Z,5.70
2018-02-11T13:43:10.545Z,5.70
2018-02-11T13:45:41.442Z,5.80
2018-02-11T13:48:22.821Z,5.80
2018-02-11T13:50:50.471Z,5.80
2018-02-11T13:53:18.083Z,5.80
2018-02-11T13:55:45.533Z,5.80
2018-02-11T13:58:13.020Z,5.90
2018-02-11T14:00:41.260Z,5.90
2018-02-11T14:03:10.696Z,5.90
2018-02-11T14:05:42.152Z,5.90
2018-02-11T14:08:09.655Z,5.90
2018-02-11T14:10:37.124Z,5.80
2018-02-11T14:13:04.585Z,5.90
2018-02-11T14:15:45.127Z,5.90
2018-02-11T14:18:12.613Z,6.00
2018-02-11T14:20:40.485Z,6.00
2018-02-11T14:23:08.101Z,6.00
2018-02-11T14:25:35.565Z,6.00
2018-02-11T14:28:03.118Z,5.90
2018-02-11T14:30:30.566Z,6.00
2018-02-11T14:32:58.039Z,5.90
2018-02-11T14:35:25.908Z,6.00
2018-02-11T14:37:53.500Z,6.00
2018-02-11T14:40:21.345Z,6.10
2018-02-11T14:42:54.946Z,6.10
2018-02-11T14:45:26.476Z,6.10
2018-02-11T14:48:04.068Z,6.10
2018-02-11T14:50:52.159Z,6.00
2018-02-11T15:17:52.220Z,5.80
2018-02-11T15:20:20.114Z,5.80
2018-02-11T15:22:47.638Z,5.90
2018-02-11T15:25:15.343Z,6.00
2018-02-11T15:27:43.900Z,5.90
2018-02-11T15:30:11.818Z,5.90
2018-02-11T15:32:40.035Z,5.90
2018-02-11T15:35:12.589Z,5.70
2018-02-11T15:37:40.250Z,5.60
2018-02-11T15:40:07.961Z,5.50
2018-02-11T15:42:35.687Z,5.50
2018-02-11T15:45:03.452Z,5.40
2018-02-11T15:47:31.117Z,5.30
2018-02-11T15:49:58.842Z,5.30
2018-02-11T15:52:28.479Z,5.20
2018-02-11T15:54:57.994Z,5.20
2018-02-11T15:57:25.731Z,5.20
2018-02-11T15:59:53.595Z,5.10
2018-02-11T16:02:21.142Z,5.00
2018-02-11T16:04:49.755Z,4.90
2018-02-11T16:07:21.676Z,4.90
2018-02-11T16:12:36.971Z,4.60
2018-02-11T16:20:31.134Z,4.50
2018-02-11T16:26:16.953Z,4.30
2018-02-11T16:31:44.144Z,4.20
2018-02-11T16:34:12.196Z,4.20
2018-02-11T16:40:20.345Z,4.20
2018-02-11T17:28:54.228Z,4.20
2018-02-11T17:31:31.240Z,4.20
2018-02-11T17:34:01.099Z,4.20
2018-02-11T17:36:33.151Z,4.20
2018-02-11T17:39:01.456Z,4.10
2018-02-11T17:41:30.466Z,4.00
2018-02-11T17:44:00.686Z,4.00
2018-02-11T17:46:30.096Z,4.20
2018-02-11T17:48:57.673Z,4.60
2018-02-11T17:51:26.241Z,4.80
2018-02-11T17:53:57.813Z,5.00
2018-02-11T17:56:25.526Z,4.90
2018-02-11T17:58:53.083Z,4.80
2018-02-11T18:01:23.460Z,4.60
2018-02-11T18:03:53.064Z,4.50
2018-02-11T18:06:21.602Z,4.30
2018-02-11T18:08:49.833Z,4.30
2018-02-11T18:11:17.565Z,4.20
2018-02-11T18:13:46.118Z,4.20
2018-02-11T18:16:13.635Z,4.10
2018-02-11T18:18:41.270Z,4.10
2018-02-11T18:21:08.742Z,4.10
2018-02-11T18:23:38.878Z,4.10
2018-02-11T18:26:06.494Z,4.10
2018-02-11T18:28:34.505Z,4.00
2018-02-11T18:31:02.014Z,4.10
2018-02-11T18:33:29.545Z,4.20
2018-02-11T18:35:57.017Z,4.20
2018-02-11T18:38:24.505Z,4.20
2018-02-11T18:40:51.992Z,4.20
2018-02-11T18:43:19.500Z,4.20
2018-02-11T18:45:47.014Z,4.10
2018-02-11T18:48:14.547Z,4.20
2018-02-11T18:50:42.250Z,4.20
2018-02-11T18:53:09.732Z,4.10
2018-02-11T18:55:37.229Z,4.20
2018-02-11T18:58:05.545Z,4.20
2018-02-11T19:00:33.021Z,4.20
2018-02-11T19:03:02.293Z,4.20
2018-02-11T19:05:33.715Z,4.20
2018-02-11T19:08:01.729Z,4.20
2018-02-11T19:10:31.813Z,4.20
2018-02-11T19:13:01.139Z,4.10
2018-02-11T19:15:31.645Z,3.90
2018-02-11T19:18:00.469Z,3.90
2018-02-11T19:20:29.019Z,3.80
2018-02-11T19:22:56.570Z,3.70
2018-02-11T19:25:24.209Z,3.60
2018-02-11T19:27:51.826Z,3.50
2018-02-11T19:30:20.814Z,3.50
2018-02-11T19:32:49.045Z,3.40
2018-02-11T19:35:16.585Z,3.30
2018-02-11T19:37:44.386Z,3.30
2018-02-11T19:40:11.986Z,3.30
2018-02-11T19:42:40.666Z,3.20
2018-02-11T19:45:09.400Z,3.20
2018-02-11T19:47:38.883Z,3.20
2018-02-11T19:50:06.509Z,3.10
2018-02-11T19:52:34.173Z,3.20
2018-02-11T19:55:02.213Z,3.10
2018-02-11T19:57:32.764Z,3.10
2018-02-11T20:00:00.953Z,3.00
2018-02-11T20:02:29.268Z,3.10
2018-02-11T20:04:57.681Z,3.00
2018-02-11T20:07:25.224Z,3.00
2018-02-11T20:09:53.732Z,3.00
2018-02-11T20:12:22.186Z,3.00
2018-02-11T20:14:50.826Z,3.00
2018-02-11T20:17:18.373Z,3.00
2018-02-11T20:19:48.171Z,2.90
2018-02-11T20:22:15.697Z,2.90
2018-02-11T20:24:44.032Z,2.90
2018-02-11T20:27:13.659Z,2.90
2018-02-11T20:29:42.441Z,2.90
2018-02-11T20:32:14.731Z,2.90
2018-02-11T20:34:43.580Z,2.80
2018-02-11T20:37:11.895Z,2.80
2018-02-11T20:39:41.118Z,2.80
2018-02-11T20:42:09.338Z,2.80
2018-02-11T20:44:37.196Z,2.80
2018-02-11T20:47:04.736Z,2.70
2018-02-11T20:49:32.277Z,2.70
2018-02-11T20:51:59.738Z,2.70
2018-02-11T20:54:27.217Z,2.70
2018-02-11T20:56:54.682Z,2.70
2018-02-11T20:59:22.177Z,2.70
2018-02-11T21:01:49.639Z,2.70
2018-02-11T21:04:19.070Z,2.60
2018-02-11T21:06:46.612Z,2.60
2018-02-11T21:09:14.114Z,2.60
2018-02-11T21:11:47.967Z,2.50
2018-02-11T21:14:15.442Z,2.50
2018-02-11T21:16:43.058Z,2.50
2018-02-11T21:19:10.853Z,2.50
2018-02-11T21:21:38.416Z,2.50
2018-02-11T21:26:41.018Z,2.50
2018-02-11T21:29:08.532Z,2.50
2018-02-11T21:31:36.183Z,2.50
2018-02-11T21:34:03.867Z,2.40
2018-02-11T21:36:31.346Z,2.40
2018-02-11T21:38:58.860Z,2.40
2018-02-11T21:41:26.421Z,2.40
2018-02-11T21:43:54.039Z,2.40
2018-02-11T21:46:21.571Z,2.30
2018-02-11T21:48:49.837Z,2.20
2018-02-11T21:51:17.421Z,2.20
2018-02-11T21:53:44.922Z,2.20
2018-02-11T21:56:12.525Z,2.20
2018-02-11T21:58:40.786Z,2.20
2018-02-11T22:01:08.283Z,2.20
2018-02-11T22:03:35.796Z,2.20
2018-02-11T22:06:04.201Z,2.20
2018-02-11T22:08:31.756Z,2.20
2018-02-11T22:10:59.231Z,2.20
2018-02-11T22:13:26.717Z,2.10
2018-02-11T22:15:54.238Z,2.10
2018-02-11T22:18:23.885Z,2.10
2018-02-11T22:20:51.442Z,2.10
2018-02-11T22:23:18.972Z,2.00
2018-02-11T22:25:46.432Z,2.10
2018-02-11T22:28:13.957Z,2.10
2018-02-11T22:30:41.451Z,2.00
2018-02-11T22:33:09.838Z,2.10
2018-02-11T22:35:37.346Z,2.00
2018-02-11T22:38:04.872Z,2.00
2018-02-11T22:40:32.351Z,2.00
2018-02-11T22:42:59.829Z,2.00
2018-02-11T22:45:27.316Z,2.00
2018-02-11T22:47:54.806Z,2.00
2018-02-11T22:50:22.280Z,2.00
2018-02-11T22:52:49.777Z,2.10
2018-02-11T22:55:18.026Z,1.90
2018-02-11T22:57:45.559Z,1.90
2018-02-11T23:00:13.032Z,1.90
2018-02-11T23:02:41.456Z,1.90
2018-02-11T23:05:08.919Z,1.90
2018-02-11T23:07:36.411Z,1.90
2018-02-11T23:10:04.884Z,1.90
2018-02-11T23:12:32.388Z,1.90
2018-02-11T23:14:59.852Z,1.80
2018-02-11T23:17:28.297Z,1.80
2018-02-11T23:19:55.769Z,1.80
2018-02-11T23:22:23.233Z,1.70
2018-02-11T23:24:50.699Z,1.70
2018-02-11T23:27:19.090Z,1.80
2018-02-11T23:29:46.657Z,1.70
2018-02-11T23:32:14.116Z,1.70
2018-02-11T23:34:42.498Z,1.80
2018-02-11T23:37:10.334Z,1.80
2018-02-11T23:39:37.845Z,1.80
2018-02-11T23:42:05.325Z,1.80
2018-02-11T23:44:32.797Z,1.80
2018-02-11T23:47:01.261Z,1.80
2018-02-11T23:49:28.790Z,1.80
2018-02-11T23:51:56.867Z,1.80
2018-02-11T23:54:24.329Z,1.80
2018-02-11T23:56:52.028Z,1.80
2018-02-11T23:59:19.497Z,1.70
